This is the latest recevied weather packets stored in our database for station/object EA1CUE-WX. If no packets are shown the sender has not sent any weather packets the latest 1 day(s).
| Time | Temp. | Humidity | Pressure | Rain* | Wind** | Luminosity | Snow |
|---|---|---|---|---|---|---|---|
| 1836274593 | 18.89° C | 35% | 1018.6 hPa | 0 mm | 0 m/s | - | - |
| 1836274443 | 18.33° C | 34% | 1018.5 hPa | 0 mm | 0 m/s | - | - |
| 1836274293 | 18.89° C | 33% | 1018.5 hPa | 0 mm | 0 m/s | - | - |
| 1836274143 | 18.89° C | 34% | 1018.5 hPa | 0 mm | 0 m/s | - | - |
| 1836273993 | 18.89° C | 34% | 1018.6 hPa | 0 mm | 0 m/s | - | - |
| 1778059426 | 10.56° C | 17% | 1013.3 hPa | 0 mm | 0 m/s | - | - |
| 1778059126 | 10° C | 8% | 1013.1 hPa | 0 mm | 0 m/s | - | - |
| 1778058826 | 10° C | 7% | 1013.1 hPa | 0 mm | 0.45 m/s, 64° | - | - |
| 1778058526 | 10° C | 14% | 1013.1 hPa | 0 mm | 0 m/s | - | - |
| 1778058226 | 10° C | 4% | 1013.1 hPa | 0 mm | 0 m/s | - | - |
| 1778057926 | 10° C | 1% | 1013.2 hPa | 0 mm | 0 m/s | - | - |
| 1778057626 | 10° C | 1% | 1013.2 hPa | 0 mm | 0 m/s | - | - |
| 1778057326 | 10° C | 1% | 1013.2 hPa | 0 mm | 0 m/s | - | - |
| 1778057026 | 9.44° C | 1% | 1013.2 hPa | 0 mm | 0 m/s | - | - |
| 1778056726 | 8.89° C | 1% | 1013.3 hPa | 0 mm | 0 m/s | - | - |
| 1778056426 | 8.89° C | 1% | 1013.2 hPa | 0 mm | 0 m/s | - | - |
| 1778056126 | 8.33° C | 1% | 1013.2 hPa | 0 mm | 0 m/s | - | - |
| 1778055826 | 8.33° C | 1% | 1013.2 hPa | 0 mm | 0 m/s | - | - |
| 1778055526 | 8.33° C | 1% | 1013.3 hPa | 0 mm | 0 m/s | - | - |
| 1778055226 | 8.33° C | 1% | 1013.3 hPa | 0 mm | 0 m/s | - | - |
| 1778054926 | 8.33° C | 1% | 1013.3 hPa | 0 mm | 0 m/s | - | - |
| 1778054626 | 8.33° C | 1% | 1013.2 hPa | 0 mm | 0 m/s | - | - |
| 1778054326 | 8.33° C | 1% | 1013.2 hPa | 0 mm | 0 m/s | - | - |
| 1778054026 | 8.33° C | 1% | 1013.2 hPa | 0 mm | 0 m/s | - | - |
| 1778053726 | 8.33° C | 1% | 1013.2 hPa | 0 mm | 0 m/s | - | - |
* Rain latest hour (hover to see other rain measurements)
** Current wind speed in m/s (hover to see current wind gust speed)